• Join FlightAware (Why Join?)
  • Login
  • US Flag 
03:11PM EDT


 

Airport Tracker/Info


-or-


 

Live Flight TrackerFlight Track Log ✈ SIA297 ✈ 09-May-2012 ✈ WSSS / SIN - NZCH / CHC

Flight Track Log - Related Links

Times and Time Zones

All times are in EDT time to prevent confusion due to time zone crossing. See the SIA297 flight status page for this flight to view local times or setup timezone preferences in your user account.

Time Position Orientation Groundspeed Altitude Reporting Facility
EDT Latitude Longitude Course Direction KTS MPH feet Rate Location/Type
09:07AM 1.1714 104.0764 142° Southeast  Level FlightAware Approximate
09:08AM 1.0614 104.1294 142° Southeast  Level FlightAware Approximate
09:09AM 0.9513 104.1825 142° Southeast  Level FlightAware Approximate
09:10AM 0.8413 104.2356 142° Southeast  Level FlightAware Approximate
09:11AM 0.7313 104.2886 142° Southeast  Level FlightAware Approximate
09:12AM 0.6212 104.3417 142° Southeast  Level FlightAware Approximate
09:13AM 0.5112 104.3948 141° Southeast  Level FlightAware Approximate
09:14AM 0.4012 104.4478 141° Southeast  Level FlightAware Approximate
09:15AM 0.2912 104.5009 141° Southeast  Level FlightAware Approximate
09:16AM 0.1811 104.5539 141° Southeast  Level FlightAware Approximate
09:17AM 0.0711 104.6070 141° Southeast  Level FlightAware Approximate
09:18AM -0.0389 104.6600 141° Southeast  Level FlightAware Approximate
09:19AM -0.1490 104.7131 141° Southeast  Level FlightAware Approximate
09:20AM -0.2590 104.7661 141° Southeast  Level FlightAware Approximate
09:21AM -0.2988 104.8772 141° Southeast  Level FlightAware Approximate
09:22AM -0.4130 104.9205 141° Southeast  Level FlightAware Approximate
09:23AM -0.5272 104.9639 141° Southeast  Level FlightAware Approximate
09:24AM -0.6414 105.0073 141° Southeast  Level FlightAware Approximate
09:25AM -0.7556 105.0506 141° Southeast  Level FlightAware Approximate
09:26AM -0.8698 105.0940 141° Southeast  Level FlightAware Approximate
09:27AM -0.9840 105.1373 141° Southeast  Level FlightAware Approximate
09:28AM -1.0982 105.1807 141° Southeast  Level FlightAware Approximate
09:29AM -1.2124 105.2241 141° Southeast  Level FlightAware Approximate
09:30AM -1.3266 105.2674 141° Southeast  Level FlightAware Approximate
09:31AM -1.4408 105.3108 141° Southeast  Level FlightAware Approximate
09:32AM -1.5550 105.3542 141° Southeast  Level FlightAware Approximate
09:33AM -1.6692 105.3976 141° Southeast  Level FlightAware Approximate
09:34AM -1.7834 105.4410 141° Southeast  Level FlightAware Approximate
09:35AM -1.8976 105.4844 141° Southeast  Level FlightAware Approximate
09:36AM -2.0118 105.5278 141° Southeast  Level FlightAware Approximate
09:37AM -2.1257 105.5721 141° Southeast  Level FlightAware Approximate
09:38AM -2.2395 105.6163 141° Southeast  Level FlightAware Approximate
09:39AM -2.3534 105.6606 141° Southeast  Level FlightAware Approximate
09:40AM -2.4673 105.7049 141° Southeast  Level FlightAware Approximate
09:41AM -2.5811 105.7492 140° Southeast  Level FlightAware Approximate
09:42AM -2.6950 105.7935 140° Southeast  Level FlightAware Approximate
09:43AM -2.8088 105.8379 140° Southeast  Level FlightAware Approximate
09:44AM -2.9227 105.8822 140° Southeast  Level FlightAware Approximate
09:45AM -3.0365 105.9265 140° Southeast  Level FlightAware Approximate
09:46AM -3.1504 105.9709 140° Southeast  Level FlightAware Approximate
09:47AM -3.2642 106.0152 140° Southeast  Level FlightAware Approximate
09:48AM -3.3780 106.0596 140° Southeast  Level FlightAware Approximate
09:49AM -3.4919 106.1040 140° Southeast  Level FlightAware Approximate
09:50AM -3.6057 106.1484 140° Southeast  Level FlightAware Approximate
09:51AM -3.7162 106.2005 140° Southeast  Level FlightAware Approximate
09:52AM -3.8267 106.2527 140° Southeast  Level FlightAware Approximate
09:53AM -3.9372 106.3050 140° Southeast  Level FlightAware Approximate
09:54AM -4.0477 106.3572 140° Southeast  Level FlightAware Approximate
09:55AM -4.1582 106.4094 140° Southeast  Level FlightAware Approximate
09:56AM -4.2687 106.4617 140° Southeast  Level FlightAware Approximate
09:57AM -4.3791 106.5140 140° Southeast  Level FlightAware Approximate
09:58AM -4.4896 106.5663 140° Southeast  Level FlightAware Approximate
09:59AM -4.6001 106.6186 140° Southeast  Level FlightAware Approximate
10:00AM -4.7105 106.6709 140° Southeast  Level FlightAware Approximate
10:01AM -4.8210 106.7232 140° Southeast  Level FlightAware Approximate
10:02AM -4.9239 106.7894 140° Southeast  Level FlightAware Approximate
10:03AM -5.0267 106.8555 140° Southeast  Level FlightAware Approximate
10:04AM -5.1296 106.9217 139° Southeast  Level FlightAware Approximate
10:05AM -5.2324 106.9878 139° Southeast  Level FlightAware Approximate
10:06AM -5.3353 107.0540 139° Southeast  Level FlightAware Approximate
10:07AM -5.4381 107.1203 139° Southeast  Level FlightAware Approximate
10:08AM -5.5409 107.1865 139° Southeast  Level FlightAware Approximate
10:09AM -5.6437 107.2528 139° Southeast  Level FlightAware Approximate
10:10AM -5.7466 107.3191 139° Southeast  Level FlightAware Approximate
10:11AM -5.8493 107.3854 139° Southeast  Level FlightAware Approximate
10:12AM -5.9521 107.4518 139° Southeast  Level FlightAware Approximate
10:13AM -6.0549 107.5181 139° Southeast  Level FlightAware Approximate
10:14AM -6.1577 107.5845 139° Southeast  Level FlightAware Approximate
10:15AM -6.2605 107.6510 139° Southeast  Level FlightAware Approximate
10:16AM -6.3632 107.7174 139° Southeast  Level FlightAware Approximate
10:17AM -6.4660 107.7839 139° Southeast  Level FlightAware Approximate
10:18AM -6.5687 107.8504 139° Southeast  Level FlightAware Approximate
10:19AM -6.6715 107.9169 139° Southeast  Level FlightAware Approximate
10:20AM -6.7742 107.9835 139° Southeast  Level FlightAware Approximate
10:21AM -6.8769 108.0500 139° Southeast  Level FlightAware Approximate
10:22AM -6.9796 108.1167 139° Southeast  Level FlightAware Approximate
10:23AM -7.0823 108.1833 139° Southeast  Level FlightAware Approximate
10:24AM -7.1850 108.2500 139° Southeast  Level FlightAware Approximate
10:25AM -7.2877 108.3167 139° Southeast  Level FlightAware Approximate
10:26AM -7.3904 108.3834 139° Southeast  Level FlightAware Approximate
10:27AM -7.4930 108.4502 139° Southeast  Level FlightAware Approximate
10:28AM -7.5957 108.5170 139° Southeast  Level FlightAware Approximate
10:29AM -7.6950 108.5887 139° Southeast  Level FlightAware Approximate
10:30AM -7.7944 108.6604 139° Southeast  Level FlightAware Approximate
10:31AM -7.8937 108.7322 139° Southeast  Level FlightAware Approximate
10:32AM -7.9931 108.8040 139° Southeast  Level FlightAware Approximate
10:33AM -8.0924 108.8758 139° Southeast  Level FlightAware Approximate
10:34AM -8.1917 108.9477 139° Southeast  Level FlightAware Approximate
10:35AM -8.2910 109.0196 139° Southeast  Level FlightAware Approximate
10:36AM -8.3902 109.0915 139° Southeast  Level FlightAware Approximate
10:37AM -8.4895 109.1635 138° Southeast  Level FlightAware Approximate
10:38AM -8.5887 109.2355 138° Southeast  Level FlightAware Approximate
10:39AM -8.6880 109.3076 138° Southeast  Level FlightAware Approximate
10:40AM -8.7872 109.3797 138° Southeast  Level FlightAware Approximate
10:41AM -8.8864 109.4518 138° Southeast  Level FlightAware Approximate
10:42AM -8.9856 109.5240 138° Southeast  Level FlightAware Approximate
10:43AM -9.0848 109.5962 138° Southeast  Level FlightAware Approximate
10:44AM -9.1839 109.6684 138° Southeast  Level FlightAware Approximate
10:45AM -9.2831 109.7407 138° Southeast  Level FlightAware Approximate
10:46AM -9.3822 109.8130 138° Southeast  Level FlightAware Approximate
10:47AM -9.4813 109.8854 138° Southeast  Level FlightAware Approximate
10:48AM -9.5805 109.9578 138° Southeast  Level FlightAware Approximate
10:49AM -9.6795 110.0303 138° Southeast  Level FlightAware Approximate
10:50AM -9.7786 110.1028 138° Southeast  Level FlightAware Approximate
10:51AM -9.8777 110.1753 138° Southeast  Level FlightAware Approximate
10:52AM -9.9767 110.2479 138° Southeast  Level FlightAware Approximate
10:53AM -10.0758 110.3205 138° Southeast  Level FlightAware Approximate
10:54AM -10.1748 110.3932 138° Southeast  Level FlightAware Approximate
10:55AM -10.2738 110.4659 138° Southeast  Level FlightAware Approximate
10:56AM -10.3727 110.5387 138° Southeast  Level FlightAware Approximate
10:57AM -10.4717 110.6115 138° Southeast  Level FlightAware Approximate
10:58AM -10.5707 110.6843 138° Southeast  Level FlightAware Approximate
10:59AM -10.6696 110.7572 138° Southeast  Level FlightAware Approximate
11:00AM -10.7685 110.8302 138° Southeast  Level FlightAware Approximate
11:01AM -10.8674 110.9032 138° Southeast  Level FlightAware Approximate
11:02AM -10.9663 110.9762 138° Southeast  Level FlightAware Approximate
11:03AM -11.0651 111.0493 138° Southeast  Level FlightAware Approximate
11:04AM -11.1640 111.1225 138° Southeast  Level FlightAware Approximate
11:05AM -12.1385 111.5396 137° Southeast 37,000  Level Aus ATC (Calculated)
11:06AM -12.2448 111.6266 137° Southeast  Level FlightAware Approximate
11:07AM -12.2736 111.6499 137° Southeast 37,000  Level Aus ATC (Calculated)
11:08AM -12.4045 111.7569 137° Southeast 37,000  Level Aus ATC (Calculated)
11:09AM -12.5116 111.8448 137° Southeast  Level FlightAware Approximate
11:10AM -12.6169 111.9313 137° Southeast  Level FlightAware Approximate
11:11AM -12.7222 112.0178 137° Southeast  Level FlightAware Approximate
11:12AM -12.7212 112.0165 137° Southeast 37,000  Level Aus ATC (Calculated)
11:13AM -12.8683 112.1376 137° Southeast  Level FlightAware Approximate
11:14AM -12.9733 112.2242 137° Southeast  Level FlightAware Approximate
11:15AM -13.0783 112.3108 137° Southeast  Level FlightAware Approximate
11:16AM -13.1832 112.3975 136° Southeast  Level FlightAware Approximate
11:17AM -13.2882 112.4843 136° Southeast  Level FlightAware Approximate
11:18AM -13.3045 112.4968 136° Southeast 37,000  Level Aus ATC (Calculated)
11:19AM -13.4496 112.6170 136° Southeast  Level FlightAware Approximate
11:19AM -13.4520 112.6187 136° Southeast 37,000  Level Aus ATC (Calculated)
11:21AM -13.6372 112.7725 136° Southeast  Level FlightAware Approximate
11:22AM -13.7420 112.8596 136° Southeast  Level FlightAware Approximate
11:23AM -13.8178 112.9221 136° Southeast 37,000  Level Aus ATC (Calculated)
11:25AM -14.0147 113.0862 136° Southeast  Level FlightAware Approximate
11:26AM -14.1053 113.1612 136° Southeast 37,000  Level Aus ATC (Calculated)
11:28AM -14.3246 113.3442 136° Southeast 37,000  Level Aus ATC (Calculated)
11:30AM -14.5055 113.4960 136° Southeast  Level FlightAware Approximate
11:31AM -14.6098 113.5837 136° Southeast  Level FlightAware Approximate
11:32AM -14.7141 113.6714 136° Southeast  Level FlightAware Approximate
11:33AM -14.8183 113.7592 136° Southeast  Level FlightAware Approximate
11:34AM -14.9226 113.8472 136° Southeast  Level FlightAware Approximate
11:35AM -15.0267 113.9352 136° Southeast  Level FlightAware Approximate
11:36AM -15.1309 114.0232 136° Southeast  Level FlightAware Approximate
11:37AM -15.1184 114.0107 136° Southeast 37,000  Level Aus ATC (Calculated)
11:38AM -15.2416 114.1151 136° Southeast  Level FlightAware Approximate
11:39AM -15.3457 114.2034 136° Southeast  Level FlightAware Approximate
11:40AM -15.4073 114.2550 136° Southeast 37,000  Level Aus ATC (Calculated)
11:41AM -15.5287 114.3582 135° Southeast  Level FlightAware Approximate
11:42AM -15.6326 114.4467 135° Southeast  Level FlightAware Approximate
11:43AM -15.7365 114.5354 135° Southeast  Level FlightAware Approximate
11:44AM -15.8404 114.6241 135° Southeast  Level FlightAware Approximate
11:45AM -15.9442 114.7129 135° Southeast  Level FlightAware Approximate
11:46AM -16.0480 114.8018 135° Southeast  Level FlightAware Approximate
11:47AM -16.1518 114.8908 135° Southeast  Level FlightAware Approximate
11:48AM -16.2555 114.9799 135° Southeast  Level FlightAware Approximate
11:49AM -16.1798 114.9125 135° Southeast 37,000  Level Aus ATC (Calculated)
11:50AM -16.3405 115.0501 135° Southeast 37,000  Level Aus ATC (Calculated)
11:51AM -16.4128 115.1121 135° Southeast 37,000  Level Aus ATC (Calculated)
11:51AM -16.4128 115.1121 135° Southeast 37,000  Level Aus ATC (Calculated)
11:53AM -16.5955 115.2698 135° Southeast  Level FlightAware Approximate
11:54AM -16.6955 115.3631 135° Southeast  Level FlightAware Approximate
11:55AM -16.7955 115.4566 135° Southeast  Level FlightAware Approximate
11:56AM -16.8955 115.5502 135° Southeast  Level FlightAware Approximate
11:57AM -16.9954 115.6439 135° Southeast  Level FlightAware Approximate
11:58AM -17.0952 115.7377 135° Southeast  Level FlightAware Approximate
11:59AM -17.1950 115.8316 135° Southeast  Level FlightAware Approximate
11:59AM -17.2447 115.8334 135° Southeast 37,000  Level Aus ATC (Calculated)
12:01PM -17.4137 115.9940 134° Southeast  Level FlightAware Approximate
12:02PM -17.5130 116.0886 134° Southeast  Level FlightAware Approximate
12:03PM -17.6167 116.1588 134° Southeast 37,000  Level Aus ATC (Calculated)
12:04PM -17.7405 116.2675 134° Southeast 37,000  Level Aus ATC (Calculated)
12:06PM -17.9881 116.4855 134° Southeast 37,000  Level Aus ATC (Calculated)
12:08PM -18.1408 116.6340 134° Southeast  Level FlightAware Approximate
12:09PM -18.2393 116.7300 134° Southeast  Level FlightAware Approximate
12:10PM -18.3378 116.8261 134° Southeast  Level FlightAware Approximate
12:11PM -18.5441 116.9781 134° Southeast 37,000  Level Aus ATC (Calculated)
12:13PM -18.7038 117.1366 134° Southeast  Level FlightAware Approximate
12:14PM -18.8016 117.2337 134° Southeast  Level FlightAware Approximate
12:15PM -18.8992 117.3310 134° Southeast  Level FlightAware Approximate
12:16PM -18.9969 117.4284 134° Southeast  Level FlightAware Approximate
12:16PM -19.0373 117.4187 133° Southeast 37,000  Level Aus ATC (Calculated)
12:18PM -19.1973 117.5807 133° Southeast  Level FlightAware Approximate
12:19PM -19.2942 117.6791 133° Southeast  Level FlightAware Approximate
12:20PM -19.3911 117.7775 133° Southeast  Level FlightAware Approximate
12:21PM -19.5294 117.8618 133° Southeast 37,000  Level Aus ATC (Calculated)
12:23PM -19.6878 118.0261 133° Southeast  Level FlightAware Approximate
12:24PM -19.7837 118.1259 133° Southeast  Level FlightAware Approximate
12:25PM -19.8977 118.1959 133° Southeast 37,000  Level Aus ATC (Calculated)
12:26PM -20.0245 118.3303 133° Southeast  Level FlightAware Approximate
12:27PM -20.2042 118.4755 133° Southeast 37,000  Level Aus ATC (Calculated)
12:29PM -20.3533 118.6369 133° Southeast  Level FlightAware Approximate
12:30PM -20.3878 118.6438 132° Southeast 37,000  Level Aus ATC (Calculated)
12:31PM -20.5158 118.7933 132° Southeast  Level FlightAware Approximate
12:32PM -20.6061 118.8990 132° Southeast  Level FlightAware Approximate
12:33PM -20.6964 119.0048 132° Southeast  Level FlightAware Approximate
12:34PM -20.7865 119.1108 132° Southeast  Level FlightAware Approximate
12:35PM -20.8700 119.1746 132° Southeast 37,000  Level Aus ATC (Calculated)
12:36PM -20.9987 119.3272 132° Southeast  Level FlightAware Approximate
12:37PM -21.0885 119.4337 132° Southeast  Level FlightAware Approximate
12:38PM -21.1781 119.5404 132° Southeast  Level FlightAware Approximate
12:40PM -21.3505 119.7088 132° Southeast 37,000  Level Aus ATC (Calculated)
12:41PM -21.4784 119.8627 132° Southeast  Level FlightAware Approximate
12:42PM -21.5675 119.9702 132° Southeast  Level FlightAware Approximate
12:43PM -21.6566 120.0778 132° Southeast  Level FlightAware Approximate
12:44PM -21.7456 120.1856 132° Southeast  Level FlightAware Approximate
12:45PM -21.8292 120.2465 132° Southeast 37,000  Level Aus ATC (Calculated)
12:46PM -21.9577 120.4036 132° Southeast  Level FlightAware Approximate
12:47PM -22.0461 120.5121 132° Southeast  Level FlightAware Approximate
12:48PM -22.1346 120.6207 132° Southeast  Level FlightAware Approximate
12:49PM -22.2268 120.6973 131° Southeast 37,000  Level Aus ATC (Calculated)
12:49PM -22.2268 120.6973 131° Southeast 37,000  Level Aus ATC (Calculated)
12:51PM -22.3983 120.9103 131° Southeast  Level FlightAware Approximate
12:52PM -22.4861 121.0197 131° Southeast  Level FlightAware Approximate
12:53PM -22.5739 121.1293 131° Southeast  Level FlightAware Approximate
12:54PM -22.7023 121.2416 131° Southeast 37,000  Level Aus ATC (Calculated)
12:55PM -22.7938 121.3574 131° Southeast  Level FlightAware Approximate
12:56PM -22.8809 121.4678 131° Southeast  Level FlightAware Approximate
12:57PM -22.9810 121.5637 131° Southeast  Level FlightAware Approximate
12:58PM -23.0676 121.6747 131° Southeast  Level FlightAware Approximate
12:59PM -23.1690 121.7830 131° Southeast 37,000  Level Aus ATC (Calculated)
12:59PM -23.1542 121.7858 131° Southeast  Level FlightAware Approximate
01:00PM -23.2596 121.9001 131° Southeast  Level FlightAware Approximate
01:01PM -23.3458 122.0117 131° Southeast  Level FlightAware Approximate
01:02PM -23.4319 122.1235 131° Southeast  Level FlightAware Approximate
01:03PM -23.4898 122.1596 131° Southeast 37,000  Level Aus ATC (Calculated)
01:04PM -23.6025 122.3076 131° Southeast  Level FlightAware Approximate
01:05PM -23.6880 122.4202 131° Southeast  Level FlightAware Approximate
01:06PM -23.7734 122.5329 131° Southeast  Level FlightAware Approximate
01:08PM -23.9465 122.7007 130° Southeast 37,000  Level Aus ATC (Calculated)
01:09PM -24.0647 122.8601 130° Southeast  Level FlightAware Approximate
01:10PM -24.1491 122.9741 130° Southeast  Level FlightAware Approximate
01:11PM -24.2333 123.0883 130° Southeast  Level FlightAware Approximate
01:11PM -24.3105 123.1363 130° Southeast 37,000  Level Aus ATC (Calculated)
01:13PM -24.4013 123.2456 130° Southeast 37,000  Level Aus ATC (Calculated)
01:14PM -24.4839 123.3605 130° Southeast 37,000  Level Aus ATC (Calculated)
01:15PM -24.5665 123.4756 130° Southeast 37,000  Level Aus ATC (Calculated)
01:16PM -24.6855 123.6345 130° Southeast  Level FlightAware Approximate
01:17PM -24.7704 123.7483 130° Southeast  Level FlightAware Approximate
01:19PM -24.8959 123.9373 130° Southeast 37,000  Level Aus ATC (Calculated)
01:20PM -25.0230 124.1084 130° Southeast  Level FlightAware Approximate
01:21PM -25.1077 124.2227 130° Southeast  Level FlightAware Approximate
01:22PM -25.1923 124.3371 130° Southeast  Level FlightAware Approximate
01:23PM -25.3055 124.5180 130° Southeast 37,000  Level Aus ATC (Calculated)
01:25PM -25.4407 124.7015 130° Southeast  Level FlightAware Approximate
01:26PM -25.5251 124.8164 130° Southeast  Level FlightAware Approximate
01:27PM -25.6094 124.9315 130° Southeast  Level FlightAware Approximate
01:28PM -25.6936 125.0467 129° Southeast  Level FlightAware Approximate
01:28PM -25.7128 125.1025 130° Southeast 37,000  Level Aus ATC (Calculated)
01:30PM -25.8346 125.2786 129° Southeast 37,000  Level Aus ATC (Calculated)
01:31PM -25.9426 125.4268 129° Southeast  Level FlightAware Approximate
01:32PM -26.0267 125.5425 129° Southeast  Level FlightAware Approximate
01:33PM -26.1106 125.6583 129° Southeast  Level FlightAware Approximate
01:35PM -26.1985 125.8092 129° Southeast 37,000  Level Aus ATC (Calculated)
01:36PM -26.3132 125.9678 129° Southeast  Level FlightAware Approximate
01:37PM -26.3971 126.0840 129° Southeast  Level FlightAware Approximate
01:38PM -26.4808 126.2004 129° Southeast  Level FlightAware Approximate
01:40PM -26.6005 126.4025 129° Southeast 37,000  Level Aus ATC (Calculated)
01:41PM -26.7164 126.5639 129° Southeast  Level FlightAware Approximate
01:42PM -26.8000 126.6807 129° Southeast  Level FlightAware Approximate
01:43PM -26.8804 126.8203 129° Southeast 37,000  Level Aus ATC (Calculated)
01:44PM -26.9738 126.9510 129° Southeast  Level FlightAware Approximate
01:45PM -27.0000 127.0000 129° Southeast 39,000  Level Aus ATC (Calculated)
01:46PM -27.1172 127.1607 129° Southeast  Level FlightAware Approximate
01:47PM -27.2018 127.2771 129° Southeast  Level FlightAware Approximate
01:48PM -27.2863 127.3936 129° Southeast  Level FlightAware Approximate
01:50PM -27.4182 127.5889 129° Southeast 39,000  Level Aus ATC (Calculated)
01:50PM -27.4182 127.5889 129° Southeast 39,000  Level Aus ATC (Calculated)
01:51PM -27.5362 127.7527 129° Southeast  Level FlightAware Approximate
01:52PM -27.6204 127.8699 129° Southeast  Level FlightAware Approximate
01:52PM -27.6423 127.9078 129° Southeast 39,000  Level Aus ATC (Calculated)
01:53PM -27.7062 127.9991 129° Southeast 39,000  Level Aus ATC (Calculated)
01:55PM -27.8588 128.2128 129° Southeast  Level FlightAware Approximate
01:56PM -27.9427 128.3306 129° Southeast  Level FlightAware Approximate
01:57PM -28.0264 128.4486 129° Southeast  Level FlightAware Approximate
01:58PM -28.1201 128.5955 129° Southeast 39,000  Level Aus ATC (Calculated)
02:00PM -28.2719 128.8106 128° Southeast  Level FlightAware Approximate
02:01PM -28.3554 128.9293 128° Southeast  Level FlightAware Approximate
02:01PM -28.3734 128.9648 128° Southeast 39,000  Level Aus ATC (Calculated)
02:03PM -28.5313 129.1965 128° Southeast 39,000  Level Aus ATC (Calculated)
02:05PM -28.6838 129.4151 128° Southeast  Level FlightAware Approximate
02:06PM -28.7668 129.5346 128° Southeast  Level FlightAware Approximate
02:07PM -28.8498 129.6543 128° Southeast  Level FlightAware Approximate
02:08PM -28.9398 129.8020 128° Southeast 39,000  Level Aus ATC (Calculated)
02:10PM -29.0930 130.0242 128° Southeast  Level FlightAware Approximate
02:11PM -29.1899 130.1771 128° Southeast 39,000  Level Aus ATC (Calculated)
02:13PM -29.3220 130.3699 128° Southeast  Level FlightAware Approximate
02:14PM -29.4044 130.4907 128° Southeast  Level FlightAware Approximate
02:15PM -29.4867 130.6117 128° Southeast  Level FlightAware Approximate
02:16PM -29.5939 130.7903 128° Southeast 39,000  Level Aus ATC (Calculated)
02:18PM -29.7268 130.9865 128° Southeast  Level FlightAware Approximate
02:19PM -29.8089 131.1081 128° Southeast  Level FlightAware Approximate
02:20PM -29.8908 131.2299 128° Southeast  Level FlightAware Approximate
02:20PM -29.8719 131.2178 128° Southeast 39,000  Level Aus ATC (Calculated)
02:21PM -29.9951 131.4085 128° Southeast 39,000  Level Aus ATC (Calculated)
02:23PM -30.1275 131.6059 128° Southeast  Level FlightAware Approximate
02:24PM -32.2287 134.9059 127° Southeast 569 655 39,200  Level Aus ATC (RADAR)
02:25PM -32.3299 135.0650 126° Southeast 562 647 39,200  Level Aus ATC (RADAR)
02:26PM -32.4306 135.2276 126° Southeast 568 654 39,200  Level Aus ATC (RADAR)
02:27PM -32.5234 135.3777 126° Southeast 567 652 39,200  Level Aus ATC (RADAR)
02:28PM -32.6230 135.5405 126° Southeast 567 652 39,200  Level Aus ATC (RADAR)
02:30PM -32.7229 135.7023 126° Southeast 565 650 39,200  Level Aus ATC (RADAR)
02:31PM -32.8388 135.8899 126° Southeast 566 651 39,200  Level Aus ATC (RADAR)
02:32PM -32.9310 136.0402 126° Southeast 566 651 39,200  Level Aus ATC (RADAR)
02:33PM -33.0304 136.2038 122° Southeast 564 649 39,200  Level Aus ATC (RADAR)
02:34PM -33.1200 136.3775 122° Southeast 569 655 39,200  Level Aus ATC (RADAR)
02:35PM -33.2033 136.5362 122° Southeast 568 654 39,200  Level Aus ATC (RADAR)
02:36PM -33.2920 136.7086 121° Southeast 564 649 39,200  Level Aus ATC (RADAR)
02:37PM -33.3799 136.8817 122° Southeast 564 649 39,200  Level Aus ATC (RADAR)
02:38PM -33.4612 137.0408 121° Southeast 562 647 39,200  Level Aus ATC (RADAR)
02:39PM -33.5485 137.2129 122° Southeast 559 643 39,200  Level Aus ATC (RADAR)
02:40PM -33.6296 137.3717 121° Southeast 559 643 39,200  Level Aus ATC (RADAR)
02:41PM -33.7169 137.5452 121° Southeast 562 647 39,200  Level Aus ATC (RADAR)
02:42PM -33.8039 137.7185 121° Southeast 561 646 39,200  Level Aus ATC (RADAR)
02:43PM -33.8844 137.8787 121° Southeast 562 647 39,200  Level Aus ATC (RADAR)
02:44PM -33.9708 138.0523 121° Southeast 559 643 39,200  Level Aus ATC (RADAR)
02:46PM -34.0966 138.3068 121° Southeast 560 644 39,200  Level Aus ATC (RADAR)
02:47PM -34.1760 138.4672 124° Southeast 558 642 39,200  Level Aus ATC (RADAR)
02:48PM -34.2690 138.6344 125° Southeast 556 640 39,200  Level Aus ATC (RADAR)
02:49PM -34.3637 138.7996 125° Southeast 554 638 39,200  Level Aus ATC (RADAR)
02:50PM -34.4510 138.9518 125° Southeast 552 635 39,200  Level Aus ATC (RADAR)
02:51PM -34.5531 139.1300 125° Southeast 553 636 39,200  Level Aus ATC (RADAR)
02:52PM -34.6469 139.2953 125° Southeast 551 634 39,200  Level Aus ATC (RADAR)
02:53PM -34.7337 139.4483 125° Southeast 551 634 39,200  Level Aus ATC (RADAR)
02:55PM -34.8274 139.6145 124° Southeast 551 634 39,200  Level Aus ATC (RADAR)
02:56PM -34.9208 139.7813 124° Southeast 551 634 39,200  Level Aus ATC (RADAR)
02:57PM -35.0074 139.9364 124° Southeast 554 638 39,200  Level Aus ATC (RADAR)
02:58PM -35.0991 140.1047 124° Southeast 552 635 39,200  Level Aus ATC (RADAR)
02:59PM -35.1919 140.2737 124° Southeast 549 632 39,200  Level Aus ATC (RADAR)
03:00PM -35.2783 140.4303 124° Southeast 552 635 39,200  Level Aus ATC (RADAR)
03:02PM -35.4354 140.7199 124° Southeast 557 641 39,200  Level Aus ATC (RADAR)
03:03PM -35.5291 140.8911 124° Southeast 557 641 39,200  Level Aus ATC (RADAR)
03:04PM -35.6220 141.0627 124° Southeast 557 641 39,200  Level Aus ATC (RADAR)
03:05PM -35.7066 141.2203 125° Southeast 553 636 39,200  Level Aus ATC (RADAR)
03:06PM -35.8032 141.3883 125° Southeast 555 639 39,200  Level Aus ATC (RADAR)
03:07PM -35.8992 141.5561 125° Southeast 552 635 39,200  Level Aus ATC (RADAR)
03:08PM -35.9858 141.7119 125° Southeast 547 629 39,200  Level Aus ATC (RADAR)
03:09PM -36.0805 141.8797 124° Southeast 547 629 39,200  Level Aus ATC (RADAR)
03:10PM -36.1736 142.0492 124° Southeast 548 631 39,200  Level Aus ATC (RADAR)
03:11PM -36.2592 142.2056 125° Southeast 546 628 39,200  Level Aus ATC (RADAR)
03:12PM -36.3537 142.3742 124° Southeast 548 631 39,200  Level Aus ATC (RADAR)
03:13PM -36.4467 142.5438 124° Southeast 545 627 39,200  Level Aus ATC (RADAR)
03:14PM -36.5325 142.7002 124° Southeast 545 627 39,200  Level Aus ATC (RADAR)
03:15PM -36.6246 142.8709 124° Southeast 545 627 39,200  Level Aus ATC (RADAR)
03:17PM -36.7590 143.1204 124° Southeast 546 628 39,200  Level Aus ATC (RADAR)
03:18PM -36.8223 143.2380 124° Southeast 540 621 39,200  Level Aus ATC (RADAR)
03:19PM -36.9068 143.3955 124° Southeast 542 624 39,200  Level Aus ATC (RADAR)
03:20PM -37.0044 143.5802 124° Southeast 542 624 39,200  Level Aus ATC (RADAR)
03:21PM -37.0884 143.7389 123° Southeast 543 625 39,200  Level Aus ATC (RADAR)
03:22PM -37.1719 143.8979 123° Southeast 544 626 39,200  Level Aus ATC (RADAR)
03:23PM -37.2692 144.0836 123° Southeast 541 623 39,200  Level Aus ATC (RADAR)
03:24PM -37.3521 144.2431 123° Southeast 539 620 39,200  Level Aus ATC (RADAR)
03:25PM -37.4415 144.4160 123° Southeast 539 620 39,200  Level Aus ATC (RADAR)
03:26PM -37.5309 144.5890 123° Southeast 538 619 39,200  Level Aus ATC (RADAR)
03:27PM -37.6199 144.7628 118° Southeast 536 617 39,200  Level Aus ATC (RADAR)
03:28PM -37.6921 144.9327 114° Southeast 547 629 39,200  Level Aus ATC (RADAR)
03:29PM -37.7587 145.1259 114° Southeast 547 629 39,200  Level Aus ATC (RADAR)
03:30PM -37.8250 145.3189 113° Southeast 546 628 39,200  Level Aus ATC (RADAR)
03:32PM -37.9012 145.5422 114° Southeast 547 629 39,200  Level Aus ATC (RADAR)
03:33PM -37.9699 145.7340 117° Southeast 545 627 39,200  Level Aus ATC (RADAR)
03:34PM -38.0378 145.9068 116° Southeast 539 620 39,200  Level Aus ATC (RADAR)
03:35PM -38.1040 146.0804 116° Southeast 540 621 39,200  Level Aus ATC (RADAR)
03:36PM -38.1746 146.2687 115° Southeast 536 617 39,200  Level Aus ATC (RADAR)
03:37PM -38.2394 146.4430 115° Southeast 537 618 39,200  Level Aus ATC (RADAR)
03:38PM -38.3095 146.6325 115° Southeast 541 623 39,200  Level Aus ATC (RADAR)
03:39PM -38.3796 146.8222 115° Southeast 536 617 39,200  Level Aus ATC (RADAR)
03:40PM -38.4488 147.0112 115° Southeast 537 618 39,200  Level Aus ATC (RADAR)
03:41PM -38.5127 147.1864 115° Southeast 535 616 39,200  Level Aus ATC (RADAR)
03:42PM -38.5872 147.3906 115° Southeast 535 616 39,200  Level Aus ATC (RADAR)
03:43PM -38.6500 147.5663 115° Southeast 533 613 39,200  Level Aus ATC (RADAR)
03:44PM -38.7237 147.7708 115° Southeast 531 611 39,200  Level Aus ATC (RADAR)
03:45PM -38.7871 147.9459 114° Southeast 532 612 39,200  Level Aus ATC (RADAR)
03:47PM -38.8642 148.1644 116° Southeast 528 608 39,200  Level Aus ATC (RADAR)
03:48PM -38.9289 148.3362 113° Southeast 525 604 39,200  Level Aus ATC (RADAR)
03:49PM -38.9927 148.5271 113° Southeast 525 604 39,200  Level Aus ATC (RADAR)
03:50PM -39.0516 148.7029 115° Southeast 524 603 39,200  Level Aus ATC (RADAR)
03:51PM -39.1199 148.8912 113° Southeast 523 602 39,200  Level Aus ATC (RADAR)
03:52PM -39.1787 149.0684 116° Southeast 527 606 39,200  Level Aus ATC (RADAR)
03:53PM -39.2319 149.2122 113° Southeast 528 608 39,200 -60 Level Aus ATC (RADAR)
03:57PM -39.4998 150.0263 113° Southeast 39,000 -60 Descending Aus ATC (Calculated)
03:58PM -39.5395 150.1490 113° Southeast 39,000  Level Aus ATC (Calculated)
03:59PM -39.5988 150.3332 112° Southeast 39,000 -840 Level Aus ATC (Calculated)
04:00PM -39.6895 150.6290 110° East 37,000 -1,380 Descending Aus ATC (Calculated)
04:01PM -39.7422 150.8149 110° East  Level FlightAware Approximate
04:02PM -39.7517 150.8483 110° East 37,000  Level Aus ATC (Calculated)
04:03PM -39.8301 151.1277 110° East  Level FlightAware Approximate
04:04PM -39.8820 151.3143 110° East  Level FlightAware Approximate
04:05PM -39.9336 151.5012 110° East  Level FlightAware Approximate
04:06PM -39.9593 151.5947 110° East 37,000  Level Aus ATC (Calculated)
04:07PM -40.0207 151.8195 110° East  Level FlightAware Approximate
04:08PM -40.0715 152.0072 109° East  Level FlightAware Approximate
04:09PM -40.1220 152.1951 109° East  Level FlightAware Approximate
04:10PM -40.1912 152.4548 109° East 37,000  Level Aus ATC (Calculated)
04:12PM -40.2772 152.7819 109° East  Level FlightAware Approximate
04:13PM -40.3264 152.9710 109° East  Level FlightAware Approximate
04:14PM -40.3753 153.1604 109° East  Level FlightAware Approximate
04:15PM -40.4239 153.3500 109° East  Level FlightAware Approximate
04:16PM -40.4722 153.5399 108° East  Level FlightAware Approximate
04:17PM -40.5202 153.7301 108° East  Level FlightAware Approximate
04:18PM -40.5679 153.9205 108° East  Level FlightAware Approximate
04:19PM -40.6152 154.1113 108° East  Level FlightAware Approximate
04:20PM -40.6623 154.3022 108° East  Level FlightAware Approximate
04:21PM -40.7090 154.4935 108° East  Level FlightAware Approximate
04:22PM -40.7554 154.6850 108° East  Level FlightAware Approximate
04:23PM -40.8015 154.8768 108° East  Level FlightAware Approximate
04:24PM -40.8473 155.0689 107° East  Level FlightAware Approximate
04:25PM -40.8928 155.2612 107° East  Level FlightAware Approximate
04:26PM -40.9379 155.4538 108° East  Level FlightAware Approximate
04:26PM -40.9583 155.5395 107° East 37,000  Level Aus ATC (Calculated)
04:28PM -41.0289 155.8452 107° East  Level FlightAware Approximate
04:29PM -41.0730 156.0385 107° East  Level FlightAware Approximate
04:30PM -41.1169 156.2322 107° East  Level FlightAware Approximate
04:31PM -41.1604 156.4261 107° East  Level FlightAware Approximate
04:32PM -41.2035 156.6202 106° East  Level FlightAware Approximate
04:33PM -41.2464 156.8146 106° East  Level FlightAware Approximate
04:34PM -41.2889 157.0093 106° East  Level FlightAware Approximate
04:35PM -41.3311 157.2042 106° East  Level FlightAware Approximate
04:36PM -41.3730 157.3994 106° East  Level FlightAware Approximate
04:37PM -41.4145 157.5948 106° East  Level FlightAware Approximate
04:39PM -41.4817 157.9130 360° North 39,000  Level Aus ATC (Calculated)
04:39PM -41.4817 157.9130 106° East 39,000  Level Aus ATC (Calculated)
04:40PM -41.5244 158.1189 105° East  Level FlightAware Approximate
04:40PM -41.5312 158.1518 105° East 39,000  Level Aus ATC (Calculated)
04:42PM -41.6087 158.5317 105° East  Level FlightAware Approximate
04:43PM -41.6483 158.7285 105° East  Level FlightAware Approximate
04:44PM -41.6875 158.9256 105° East  Level FlightAware Approximate
04:45PM -41.7265 159.1230 105° East  Level FlightAware Approximate
04:46PM -41.7651 159.3205 105° East  Level FlightAware Approximate
04:47PM -41.8033 159.5183 104° East  Level FlightAware Approximate
04:48PM -41.8412 159.7164 104° East  Level FlightAware Approximate
04:49PM -41.8788 159.9146 104° East  Level FlightAware Approximate
04:50PM -41.9160 160.1131 284° West  Level FlightAware Approximate
04:50PM -41.9089 160.0750 104° East 39,000  Level Aus ATC (Calculated)
04:52PM -41.9764 160.4394 104° East  Level FlightAware Approximate
04:53PM -42.0127 160.6385 104° East  Level FlightAware Approximate
04:54PM -42.0487 160.8378 104° East  Level FlightAware Approximate
04:55PM -42.0843 161.0374 103° East  Level FlightAware Approximate
04:56PM -42.1196 161.2372 103° East  Level FlightAware Approximate
04:57PM -42.1546 161.4372 103° East  Level FlightAware Approximate
04:58PM -42.1892 161.6374 103° East  Level FlightAware Approximate
04:59PM -42.2234 161.8379 103° East  Level FlightAware Approximate
05:00PM -42.2573 162.0385 283° West  Level FlightAware Approximate
05:00PM -42.2405 161.9384 103° East 39,000  Level Aus ATC (Calculated)
05:02PM -42.3020 162.3067 103° East  Level FlightAware Approximate
05:03PM -42.3351 162.5078 102° East  Level FlightAware Approximate
05:04PM -42.3678 162.7092 102° East  Level FlightAware Approximate
05:05PM -42.4002 162.9108 102° East  Level FlightAware Approximate
05:06PM -42.4322 163.1125 102° East  Level FlightAware Approximate
05:07PM -42.4635 163.3147 102° East  Level Estimated
05:08PM -43.1510 168.5522 98° East  Level FlightAware Approximate
05:09PM -43.1721 168.7591 278° West  Level Estimated
05:10PM -43.1510 168.5522 98° East  Level FlightAware Approximate
05:11PM -43.1721 168.7591 278° West  Level Estimated
05:12PM -43.1510 168.5522 98° East  Level FlightAware Approximate
05:13PM -43.1721 168.7591 278° West  Level Estimated
05:14PM -43.1510 168.5522 98° East  Level FlightAware Approximate
05:15PM -43.1721 168.7591 278° West  Level Estimated
05:16PM -43.1510 168.5522 98° East  Level FlightAware Approximate
05:17PM -43.1721 168.7591 278° West  Level Estimated
05:18PM -43.1510 168.5522 98° East  Level FlightAware Approximate
05:19PM -43.1721 168.7591 278° West  Level Estimated
05:20PM -43.1510 168.5522 98° East  Level FlightAware Approximate
05:21PM -43.1721 168.7591 278° West  Level Estimated
05:22PM -43.1510 168.5522 98° East  Level FlightAware Approximate
05:23PM -43.1721 168.7591 278° West  Level Estimated
05:24PM -43.1510 168.5522 98° East  Level FlightAware Approximate
05:25PM -43.1721 168.7591 278° West  Level Estimated
05:26PM -43.1510 168.5522 98° East  Level FlightAware Approximate
05:27PM -43.1721 168.7591 278° West  Level Estimated
05:28PM -43.1510 168.5522 98° East  Level FlightAware Approximate
05:29PM -43.1721 168.7591 278° West  Level Estimated
05:30PM -43.1510 168.5522 98° East  Level FlightAware Approximate
05:31PM -43.1721 168.7591 278° West  Level Estimated
05:32PM -43.1510 168.5522 98° East  Level FlightAware Approximate
05:33PM -43.1721 168.7591 278° West  Level Estimated
05:34PM -43.1510 168.5522 98° East  Level FlightAware Approximate
05:35PM -43.1721 168.7591 278° West  Level Estimated
05:36PM -43.1510 168.5522 98° East  Level FlightAware Approximate
05:37PM -43.1721 168.7591 278° West  Level Estimated
05:38PM -43.1510 168.5522 98° East  Level FlightAware Approximate
05:39PM -43.1721 168.7591 278° West  Level Estimated
05:40PM -43.1510 168.5522 98° East  Level FlightAware Approximate
05:41PM -43.1721 168.7591 278° West  Level Estimated
05:42PM -43.1510 168.5522 98° East  Level FlightAware Approximate
05:43PM -43.1721 168.7591 278° West  Level Estimated
05:44PM -43.1510 168.5522 98° East  Level FlightAware Approximate
05:45PM -43.1721 168.7591 278° West  Level Estimated
05:46PM -43.1510 168.5522 98° East  Level FlightAware Approximate
05:47PM -43.1721 168.7591 278° West  Level Estimated
05:48PM -43.1510 168.5522 98° East  Level FlightAware Approximate
05:49PM -43.1721 168.7591 278° West  Level Estimated
05:50PM -43.1510 168.5522 98° East  Level FlightAware Approximate
05:51PM -43.1721 168.7591 278° West  Level Estimated
05:52PM -43.1510 168.5522 98° East  Level FlightAware Approximate
05:53PM -43.1721 168.7591 278° West  Level Estimated
05:54PM -43.1510 168.5522 98° East  Level FlightAware Approximate
05:55PM -43.1721 168.7591 278° West  Level Estimated
05:56PM -43.1510 168.5522 98° East  Level FlightAware Approximate
05:57PM -43.1721 168.7591 278° West  Level Estimated
05:58PM -43.1510 168.5522 98° East  Level FlightAware Approximate
05:59PM -43.1721 168.7591 278° West  Level Estimated
06:00PM -43.1510 168.5522 98° East  Level FlightAware Approximate
06:01PM -43.1721 168.7591 278° West  Level Estimated
06:02PM -43.1510 168.5522 98° East  Level FlightAware Approximate
06:03PM -43.1721 168.7591 278° West  Level Estimated
06:04PM -43.1510 168.5522 98° East  Level FlightAware Approximate
06:05PM -43.1721 168.7591 278° West  Level Estimated
06:06PM -43.1510 168.5522 98° East  Level FlightAware Approximate
06:07PM -43.1721 168.7591 278° West  Level Estimated
06:08PM -43.1510 168.5522 98° East  Level FlightAware Approximate
06:09PM -43.1721 168.7591 278° West  Level Estimated
06:10PM -43.1510 168.5522 98° East  Level FlightAware Approximate
06:11PM -43.1721 168.7591 278° West  Level Estimated
06:12PM -43.1510 168.5522 98° East  Level FlightAware Approximate
06:13PM -43.1721 168.7591 278° West  Level Estimated
06:14PM -43.1510 168.5522 98° East  Level FlightAware Approximate
06:15PM -43.1721 168.7591 278° West  Level Estimated
06:16PM -43.1510 168.5522 98° East  Level FlightAware Approximate
06:17PM -43.1721 168.7591 278° West  Level Estimated
06:18PM -43.1510 168.5522 278° West  Level FlightAware Approximate